This is the latest recevied weather packets stored in our database for station/object HK4K-15. If no packets are shown the sender has not sent any weather packets the latest 10 day(s).
| Time | Temp. | Humidity | Pressure | Rain* | Wind** | Luminosity | Snow |
|---|---|---|---|---|---|---|---|
| 1787521877 | 25.56° C | 53% | 1009 hPa | 0 mm | - | - | - |
| 1787520857 | 26.11° C | 51% | 1009 hPa | 0 mm | - | - | - |
| 1787519836 | 26.11° C | 50% | 1008 hPa | 0 mm | - | - | - |
| 1787518816 | 26.11° C | 49% | 1008 hPa | 0 mm | - | - | - |
| 1787517795 | 26.11° C | 48% | 1008 hPa | 0 mm | - | - | - |
| 1787516775 | 26.11° C | 48% | 1008 hPa | 0 mm | - | - | - |
| 1787515755 | 26.11° C | 47% | 1008 hPa | 0 mm | - | - | - |
| 1787514734 | 26.11° C | 48% | 1008 hPa | 0 mm | - | - | - |
| 1787513714 | 26.11° C | 49% | 1008 hPa | 0 mm | - | - | - |
| 1787512693 | 26.11° C | 51% | 1009 hPa | 0 mm | - | - | - |
| 1787511673 | 26.11° C | 53% | 1009 hPa | 0 mm | - | - | - |
| 1787510652 | 26.11° C | 54% | 1009 hPa | 0 mm | - | - | - |
| 1787509632 | 26.11° C | 54% | 1010 hPa | 0 mm | - | - | - |
| 1787508611 | 25.56° C | 58% | 1010 hPa | 0 mm | - | - | - |
| 1787507591 | 25.56° C | 61% | 1010 hPa | 0 mm | - | - | - |
| 1787506571 | 25.56° C | 62% | 1010 hPa | 0 mm | - | - | - |
| 1787505550 | 25.56° C | 58% | 1012 hPa | 0 mm | - | - | - |
| 1787504530 | 26.11° C | 55% | 1012 hPa | 0 mm | - | - | - |
| 1787503509 | 26.11° C | 55% | 1012 hPa | 0 mm | - | - | - |
| 1787502489 | 26.67° C | 53% | 1013 hPa | 0 mm | - | - | - |
| 1787501468 | 27.22° C | 49% | 1013 hPa | 0 mm | - | - | - |
| 1787500448 | 23.89° C | 57% | 1013 hPa | 0 mm | - | - | - |
| 1787499427 | 23.33° C | 60% | 1013 hPa | 0 mm | - | - | - |
| 1787498407 | 23.33° C | 61% | 1014 hPa | 0 mm | - | - | - |
| 1787497386 | 23.33° C | 64% | 1014 hPa | 0 mm | - | - | - |
* Rain latest hour (hover to see other rain measurements)
** Current wind speed in m/s (hover to see current wind gust speed)